Airfield :
LOGIN :

Register | Disclaimer

   EN    FR    IT 

 










Legend :    VFR   Marginal VFR   IFR   Intensive IFR   Very Intensive IFR
Visi :
Ceiling :
>= 8 km
>= 3000ft
5 to 8 km
1000 to 3000 ft
1500m to 5 km
500 to 1000 ft
800 to 1500m
200 to 500 ft
< 800m
< 200 ft
Symbols :   Thunderstorms  Fog  Heavy snow  Heavy precipitations  Wind > 20 kt
SIGMETs :     Misc.  Thunderstorms  Icing  Turbulence  Mountain Waves  Volcanic Ashes






- Airport Elevation : 285 ft
- IATA code : OZP


LEMO - Sevilla Moron

CURRENT METAR :
  • 221000Z 05004KT 340V120 CAVOK 30/08 Q1019 NOSIG

EXPIRED METARs :
  • 220930Z 06006KT 360V100 CAVOK 28/09 Q1019 NOSIG
  • 220900Z 03006KT 340V070 CAVOK 28/09 Q1019 NOSIG
  • 220830Z 03008KT 350V060 CAVOK 26/09 Q1019 NOSIG
  • 220800Z 02005KT 330V070 CAVOK 25/10 Q1019 NOSIG
  • 220730Z 05004KT 010V090 CAVOK 24/10 Q1019 NOSIG
  • 220700Z 04004KT 350V080 CAVOK 23/10 Q1019 NOSIG
  • 220630Z VRB01KT CAVOK 19/10 Q1019 NOSIG
  • 220600Z 08002KT CAVOK 17/10 Q1019 NOSIG
  • 220530Z 12004KT CAVOK 15/09 Q1019 NOSIG

TAF TAF LEMO
Valid from the 22 at 09:00 until the 23 at 09:00 UTC


220800Z 2209/2309 05005KT CAVOK TX36/2215Z TN19/2305Z
BECMG 2216/2218 24010KT
BECMG 2301/2303 VRB02KT



MET'MAP, your aeronautical weather chart ! - Copyright ORBIFLY December 2007 - Disclaimer

ORBIFLY MET'MAP TEAM :

Programming & Development : Alexandra Zaïnal
Original concept : Baudouin d'Aumeries
Technical & hardware support : Manuel Goepfert
Assistance : Marc-Olivier Méhu




SOURCES & CREDITS :

   NOAA